createdAt,value
2023-05-11T00:00:03.721Z,22.50
2023-05-11T00:02:33.195Z,22.50
2023-05-11T00:05:00.928Z,22.50
2023-05-11T00:07:28.656Z,22.40
2023-05-11T00:09:56.479Z,22.50
2023-05-11T00:12:24.159Z,22.40
2023-05-11T00:14:53.177Z,22.50
2023-05-11T00:17:20.942Z,22.40
2023-05-11T00:19:48.646Z,22.40
2023-05-11T00:22:16.364Z,22.40
2023-05-11T00:24:44.038Z,22.40
2023-05-11T00:27:11.725Z,22.40
2023-05-11T00:29:39.442Z,22.40
2023-05-11T00:32:08.576Z,22.40
2023-05-11T00:34:36.442Z,22.40
2023-05-11T00:37:04.209Z,22.50
2023-05-11T00:39:32.145Z,22.50
2023-05-11T00:42:00.719Z,22.40
2023-05-11T00:44:28.436Z,22.50
2023-05-11T00:46:56.190Z,22.40
2023-05-11T00:49:25.429Z,22.40
2023-05-11T00:51:53.305Z,22.50
2023-05-11T00:54:21.080Z,22.40
2023-05-11T00:56:49.238Z,22.40
2023-05-11T00:59:17.327Z,22.40
2023-05-11T01:01:45.054Z,22.50
2023-05-11T01:04:13.494Z,22.40
2023-05-11T01:06:46.582Z,22.40
2023-05-11T01:09:18.558Z,22.40
2023-05-11T01:11:50.032Z,22.40
2023-05-11T01:14:21.307Z,22.40
2023-05-11T01:16:50.661Z,22.50
2023-05-11T01:19:20.298Z,22.40
2023-05-11T01:21:49.330Z,22.40
2023-05-11T01:24:26.891Z,22.40
2023-05-11T01:27:04.465Z,22.50
2023-05-11T01:29:44.063Z,22.50
2023-05-11T01:32:16.684Z,22.50
2023-05-11T01:34:44.405Z,22.50
2023-05-11T01:37:15.195Z,22.40
2023-05-11T01:39:46.910Z,22.40
2023-05-11T01:42:15.368Z,22.40
2023-05-11T01:44:44.469Z,22.40
2023-05-11T01:47:13.539Z,22.40
2023-05-11T01:49:41.829Z,22.40
2023-05-11T01:52:09.949Z,22.40
2023-05-11T01:54:37.727Z,22.40
2023-05-11T01:57:05.430Z,22.40
2023-05-11T01:59:33.157Z,22.40
2023-05-11T02:02:01.173Z,22.40
2023-05-11T02:04:30.234Z,22.40
2023-05-11T02:06:58.046Z,22.40
2023-05-11T02:09:25.830Z,22.40
2023-05-11T02:11:54.232Z,22.40
2023-05-11T02:14:21.900Z,22.40
2023-05-11T02:16:49.605Z,22.40
2023-05-11T02:19:17.337Z,22.40
2023-05-11T02:21:46.341Z,22.40
2023-05-11T02:24:14.089Z,22.40
2023-05-11T02:26:42.635Z,22.40
2023-05-11T02:29:10.403Z,22.40
2023-05-11T02:31:41.363Z,22.40
2023-05-11T02:34:18.923Z,22.40
2023-05-11T02:36:48.546Z,22.40
2023-05-11T02:39:21.664Z,22.40
2023-05-11T02:41:51.002Z,22.40
2023-05-11T02:44:20.978Z,22.40
2023-05-11T02:46:48.743Z,22.40
2023-05-11T02:49:16.465Z,22.40
2023-05-11T02:51:44.423Z,22.40
2023-05-11T02:54:13.578Z,22.40
2023-05-11T02:56:46.251Z,22.40
2023-05-11T02:59:13.990Z,22.40
2023-05-11T03:01:42.028Z,22.40
2023-05-11T03:04:11.943Z,22.40
2023-05-11T03:06:39.657Z,22.40
2023-05-11T03:09:10.274Z,22.40
2023-05-11T03:11:44.075Z,22.30
2023-05-11T03:14:12.287Z,22.30
2023-05-11T03:16:40.746Z,22.30
2023-05-11T03:19:08.635Z,22.30
2023-05-11T03:21:36.819Z,22.30
2023-05-11T03:24:05.654Z,22.30
2023-05-11T03:26:33.627Z,22.40
2023-05-11T03:29:03.112Z,22.30
2023-05-11T03:31:30.861Z,22.30
2023-05-11T03:34:00.228Z,22.30
2023-05-11T03:36:29.672Z,22.30
2023-05-11T03:38:57.456Z,22.30
2023-05-11T03:41:28.930Z,22.30
2023-05-11T03:43:57.352Z,22.30
2023-05-11T03:46:26.629Z,22.30
2023-05-11T03:48:54.455Z,22.30
2023-05-11T03:51:26.045Z,22.30
2023-05-11T03:53:53.735Z,22.30
2023-05-11T03:56:22.033Z,22.30
2023-05-11T03:58:49.726Z,22.30
2023-05-11T04:01:17.458Z,22.30
2023-05-11T04:03:50.464Z,22.30
2023-05-11T04:06:18.708Z,22.30
2023-05-11T04:08:49.500Z,22.30
2023-05-11T04:11:17.210Z,22.30
2023-05-11T04:13:44.904Z,22.30
2023-05-11T04:16:12.656Z,22.30
2023-05-11T04:18:40.492Z,22.30
2023-05-11T04:21:09.556Z,22.30
2023-05-11T04:23:38.014Z,22.30
2023-05-11T04:26:05.794Z,22.30
2023-05-11T04:28:33.501Z,22.20
2023-05-11T04:31:01.192Z,22.20
2023-05-11T04:33:30.053Z,22.20
2023-05-11T04:35:58.684Z,22.20
2023-05-11T04:38:27.748Z,22.20
2023-05-11T04:40:55.641Z,22.20
2023-05-11T04:43:24.005Z,22.20
2023-05-11T04:45:51.871Z,22.20
2023-05-11T04:48:28.181Z,22.30
2023-05-11T04:50:56.433Z,22.30
2023-05-11T04:53:29.994Z,22.20
2023-05-11T04:55:58.233Z,22.30
2023-05-11T04:58:26.021Z,22.30
2023-05-11T05:00:53.721Z,22.30
2023-05-11T05:03:21.510Z,22.20
2023-05-11T05:05:49.977Z,22.20
2023-05-11T05:08:18.560Z,22.20
2023-05-11T05:10:48.041Z,22.20
2023-05-11T05:13:16.676Z,22.20
2023-05-11T05:15:44.449Z,22.20
2023-05-11T05:18:12.823Z,22.20
2023-05-11T05:20:40.603Z,22.20
2023-05-11T05:23:09.104Z,22.20
2023-05-11T05:25:36.797Z,22.20
2023-05-11T05:28:05.849Z,22.20
2023-05-11T05:30:34.227Z,22.20
2023-05-11T05:33:01.958Z,22.20
2023-05-11T05:35:29.891Z,22.20
2023-05-11T05:37:57.670Z,22.20
2023-05-11T05:40:25.320Z,22.20
2023-05-11T05:42:56.388Z,22.20
2023-05-11T05:45:26.772Z,22.20
2023-05-11T05:47:55.164Z,22.20
2023-05-11T05:50:23.454Z,22.20
2023-05-11T05:52:51.129Z,22.20
2023-05-11T05:55:20.847Z,22.20
2023-05-11T05:57:50.664Z,22.20
2023-05-11T06:00:18.968Z,22.20
2023-05-11T06:02:56.071Z,22.10
2023-05-11T06:05:27.149Z,22.20
2023-05-11T06:08:09.051Z,22.20
2023-05-11T06:10:38.183Z,22.10
2023-05-11T06:13:06.066Z,22.10
2023-05-11T06:15:34.200Z,22.20
2023-05-11T06:18:10.732Z,22.10
2023-05-11T06:20:41.212Z,22.10
2023-05-11T06:23:09.366Z,22.10
2023-05-11T06:25:40.327Z,22.20
2023-05-11T06:28:08.896Z,22.10
2023-05-11T06:30:39.269Z,22.10
2023-05-11T06:33:10.862Z,22.10
2023-05-11T06:35:40.348Z,22.20
2023-05-11T06:38:10.330Z,22.10
2023-05-11T06:40:38.338Z,22.20
2023-05-11T06:43:06.351Z,22.20
2023-05-11T06:45:48.350Z,22.20
2023-05-11T06:48:17.753Z,22.10
2023-05-11T06:50:45.552Z,22.10
2023-05-11T06:53:17.636Z,22.20
2023-05-11T06:55:45.355Z,22.20
2023-05-11T06:58:13.155Z,22.10
2023-05-11T07:00:40.822Z,22.10
2023-05-11T07:03:08.509Z,22.20
2023-05-11T07:05:39.027Z,22.10
2023-05-11T07:08:06.855Z,22.10
2023-05-11T07:10:34.542Z,22.20
2023-05-11T07:13:02.280Z,22.10
2023-05-11T07:15:30.058Z,22.10
2023-05-11T07:18:00.875Z,22.10
2023-05-11T07:20:28.588Z,22.20
2023-05-11T07:22:59.545Z,22.20
2023-05-11T07:25:27.240Z,22.20
2023-05-11T07:27:54.923Z,22.20
2023-05-11T07:30:22.932Z,22.20
2023-05-11T07:32:50.917Z,22.10
2023-05-11T07:35:18.672Z,22.10
2023-05-11T07:37:46.383Z,22.10
2023-05-11T07:40:15.443Z,22.10
2023-05-11T07:42:43.180Z,22.10
2023-05-11T07:45:11.532Z,22.10
2023-05-11T07:47:39.271Z,22.10
2023-05-11T07:50:08.481Z,22.00
2023-05-11T07:52:36.240Z,22.10
2023-05-11T07:55:04.574Z,22.10
2023-05-11T07:57:33.605Z,22.10
2023-05-11T08:00:01.364Z,22.20
2023-05-11T08:02:29.291Z,22.20
2023-05-11T08:04:57.056Z,22.20
2023-05-11T08:07:24.923Z,22.10
2023-05-11T08:09:52.662Z,22.10
2023-05-11T08:12:20.317Z,22.20
2023-05-11T08:14:49.358Z,22.20
2023-05-11T08:17:17.085Z,22.20
2023-05-11T08:19:44.800Z,22.20
2023-05-11T08:22:12.550Z,22.10
2023-05-11T08:24:40.272Z,22.00
2023-05-11T08:27:08.096Z,22.00
2023-05-11T08:29:35.793Z,22.00
2023-05-11T08:32:05.309Z,22.10
2023-05-11T08:34:33.224Z,22.10
2023-05-11T08:37:01.729Z,22.10
2023-05-11T08:39:43.727Z,22.10
2023-05-11T08:42:15.137Z,22.10
2023-05-11T08:44:43.740Z,22.10
2023-05-11T08:49:43.554Z,22.10
2023-05-11T08:52:11.235Z,22.10
2023-05-11T08:54:39.209Z,22.20
2023-05-11T08:57:07.145Z,22.10
2023-05-11T08:59:34.917Z,22.20
2023-05-11T09:02:02.644Z,22.20
2023-05-11T09:04:31.653Z,22.20
2023-05-11T09:06:59.414Z,22.20
2023-05-11T09:09:27.296Z,22.30
2023-05-11T09:11:55.217Z,22.20
2023-05-11T09:14:26.935Z,22.20
2023-05-11T09:16:55.256Z,22.20
2023-05-11T09:19:22.957Z,22.20
2023-05-11T09:21:53.280Z,22.30
2023-05-11T09:24:21.203Z,22.30
2023-05-11T09:26:48.978Z,22.20
2023-05-11T09:29:19.725Z,22.30
2023-05-11T09:31:48.047Z,22.30
2023-05-11T09:34:16.611Z,22.30
2023-05-11T09:36:44.727Z,22.30
2023-05-11T09:39:15.848Z,22.30
2023-05-11T09:41:44.493Z,22.30
2023-05-11T09:44:13.582Z,22.30
2023-05-11T09:46:42.133Z,22.30
2023-05-11T09:49:10.071Z,22.30
2023-05-11T09:51:38.358Z,22.30
2023-05-11T09:54:18.589Z,22.30
2023-05-11T09:56:47.466Z,22.40
2023-05-11T09:59:16.973Z,22.40
2023-05-11T10:01:44.900Z,22.40
2023-05-11T10:04:22.896Z,22.40
2023-05-11T10:06:52.889Z,22.40
2023-05-11T10:09:25.375Z,22.40
2023-05-11T10:11:53.258Z,22.40
2023-05-11T10:14:21.922Z,22.40
2023-05-11T10:16:49.615Z,22.40
2023-05-11T10:19:17.407Z,22.50
2023-05-11T10:21:45.207Z,22.40
2023-05-11T10:24:13.763Z,22.40
2023-05-11T10:26:42.963Z,22.40
2023-05-11T10:29:10.772Z,22.40
2023-05-11T10:31:38.618Z,22.40
2023-05-11T10:34:06.766Z,22.40
2023-05-11T10:36:34.806Z,22.30
2023-05-11T10:39:02.488Z,22.30
2023-05-11T10:41:37.810Z,22.30
2023-05-11T10:44:21.163Z,22.30
2023-05-11T10:46:59.418Z,22.30
2023-05-11T10:49:40.392Z,22.30
2023-05-11T10:52:20.581Z,22.30
2023-05-11T10:54:56.115Z,22.30
2023-05-11T10:57:38.886Z,22.30
2023-05-11T11:00:31.105Z,22.30
2023-05-11T11:02:59.061Z,22.30
2023-05-11T11:05:36.212Z,22.20
2023-05-11T11:08:04.689Z,22.20
2023-05-11T11:10:33.654Z,22.20
2023-05-11T11:13:05.667Z,22.20
2023-05-11T11:16:14.739Z,22.20
2023-05-11T11:18:44.263Z,22.30
2023-05-11T11:21:15.605Z,22.30
2023-05-11T11:23:48.982Z,22.30
2023-05-11T11:26:18.944Z,22.30
2023-05-11T11:29:08.713Z,22.30
2023-05-11T11:31:38.170Z,22.30
2023-05-11T11:34:39.907Z,22.30
2023-05-11T11:37:08.765Z,22.30
2023-05-11T11:39:50.140Z,22.30
2023-05-11T11:42:18.704Z,22.40
2023-05-11T11:44:46.771Z,22.40
2023-05-11T11:47:16.473Z,22.40
2023-05-11T11:49:44.907Z,22.40
2023-05-11T11:52:13.333Z,22.40
2023-05-11T11:54:41.194Z,22.40
2023-05-11T11:57:43.987Z,22.30
2023-05-11T12:00:12.821Z,22.30
2023-05-11T12:02:43.150Z,22.20
2023-05-11T12:05:12.528Z,22.20
2023-05-11T12:07:42.241Z,22.30
2023-05-11T12:10:11.307Z,22.30
2023-05-11T12:12:39.556Z,22.40
2023-05-11T12:15:08.783Z,22.40
2023-05-11T12:17:39.094Z,22.40
2023-05-11T12:20:15.894Z,22.40
2023-05-11T12:22:44.488Z,22.40
2023-05-11T12:25:12.938Z,22.40
2023-05-11T12:27:48.377Z,22.50
2023-05-11T12:30:22.960Z,22.60
2023-05-11T12:32:56.480Z,22.70
2023-05-11T12:35:27.005Z,22.70
2023-05-11T12:37:54.872Z,22.80
2023-05-11T12:40:22.623Z,22.80
2023-05-11T12:42:51.885Z,22.90
2023-05-11T12:45:20.065Z,22.90
2023-05-11T12:47:48.193Z,22.90
2023-05-11T12:50:15.929Z,22.90
2023-05-11T12:52:44.993Z,22.90
2023-05-11T12:55:12.761Z,23.00
2023-05-11T12:57:41.163Z,23.00
2023-05-11T13:00:12.972Z,23.10
2023-05-11T13:02:50.848Z,23.00
2023-05-11T13:05:20.605Z,23.10
2023-05-11T13:07:57.567Z,23.10
2023-05-11T13:10:25.640Z,23.10
2023-05-11T13:12:53.543Z,23.20
2023-05-11T13:15:21.947Z,23.20
2023-05-11T13:17:50.901Z,23.20
2023-05-11T13:20:19.568Z,23.20
2023-05-11T13:22:47.728Z,23.20
2023-05-11T13:25:18.883Z,23.30
2023-05-11T13:27:46.851Z,23.40
2023-05-11T13:30:14.998Z,23.40
2023-05-11T13:32:42.808Z,23.40
2023-05-11T13:35:10.993Z,23.40
2023-05-11T13:37:38.719Z,23.40
2023-05-11T13:40:08.787Z,23.40
2023-05-11T13:42:37.910Z,23.40
2023-05-11T13:45:07.995Z,23.50
2023-05-11T13:47:35.853Z,23.50
2023-05-11T13:50:03.651Z,23.50
2023-05-11T13:52:31.446Z,23.50
2023-05-11T13:54:59.158Z,23.50
2023-05-11T13:57:26.958Z,23.60
2023-05-11T13:59:56.719Z,23.50
2023-05-11T14:02:24.490Z,23.50
2023-05-11T14:04:52.238Z,23.60
2023-05-11T14:07:19.991Z,23.50
2023-05-11T14:09:48.491Z,23.50
2023-05-11T14:12:16.218Z,23.50
2023-05-11T14:14:43.981Z,23.50
2023-05-11T14:17:13.433Z,23.50
2023-05-11T14:19:41.250Z,23.60
2023-05-11T14:26:22.511Z,23.60
2023-05-11T14:28:50.181Z,23.40
2023-05-11T14:31:18.219Z,23.50
2023-05-11T14:33:47.258Z,23.50
2023-05-11T14:36:14.961Z,23.50
2023-05-11T14:38:42.654Z,23.60
2023-05-11T14:41:10.410Z,23.60
2023-05-11T14:43:40.390Z,23.60
2023-05-11T14:46:08.476Z,23.60
2023-05-11T14:48:36.419Z,23.60
2023-05-11T14:51:06.432Z,23.60
2023-05-11T14:53:34.154Z,23.70
2023-05-11T14:56:01.934Z,23.60
2023-05-11T14:58:29.638Z,23.70
2023-05-11T15:00:57.602Z,23.70
2023-05-11T15:03:25.498Z,23.70
2023-05-11T15:05:53.294Z,23.70
2023-05-11T15:08:29.681Z,23.80
2023-05-11T15:10:58.094Z,23.70
2023-05-11T15:13:25.830Z,23.70
2023-05-11T15:15:53.591Z,23.80
2023-05-11T15:18:21.443Z,23.80
2023-05-11T15:20:49.316Z,23.80
2023-05-11T15:23:17.416Z,23.80
2023-05-11T15:25:46.558Z,23.80
2023-05-11T15:28:14.680Z,23.80
2023-05-11T15:30:42.457Z,23.90
2023-05-11T15:33:10.639Z,23.90
2023-05-11T15:35:38.441Z,23.90
2023-05-11T15:38:06.246Z,23.90
2023-05-11T15:40:34.129Z,23.90
2023-05-11T15:43:03.546Z,23.90
2023-05-11T15:45:31.466Z,24.00
2023-05-11T15:47:59.280Z,24.00
2023-05-11T15:50:27.177Z,24.00
2023-05-11T15:52:56.314Z,24.00
2023-05-11T15:55:25.347Z,24.00
2023-05-11T15:57:53.098Z,24.00
2023-05-11T16:00:22.203Z,24.00
2023-05-11T16:02:50.048Z,24.00
2023-05-11T16:05:18.127Z,24.00
2023-05-11T16:07:45.863Z,24.00
2023-05-11T16:10:13.583Z,24.00
2023-05-11T16:12:41.268Z,24.00
2023-05-11T16:15:10.126Z,24.00
2023-05-11T16:17:39.176Z,23.90
2023-05-11T16:20:08.195Z,24.00
2023-05-11T16:22:37.181Z,24.00
2023-05-11T16:25:05.780Z,23.90
2023-05-11T16:27:33.513Z,24.00
2023-05-11T16:30:21.774Z,23.90
2023-05-11T16:32:51.282Z,24.00
2023-05-11T16:35:19.181Z,23.90
2023-05-11T16:37:47.717Z,24.00
2023-05-11T16:40:18.152Z,24.00
2023-05-11T16:42:46.605Z,24.00
2023-05-11T16:45:14.982Z,24.00
2023-05-11T16:47:42.949Z,23.90
2023-05-11T16:50:14.418Z,24.00
2023-05-11T16:52:42.589Z,24.00
2023-05-11T16:55:10.959Z,24.00
2023-05-11T16:57:38.993Z,24.00
2023-05-11T17:00:08.121Z,23.90
2023-05-11T17:02:35.964Z,24.00
2023-05-11T17:05:04.848Z,24.00
2023-05-11T17:07:33.996Z,24.00
2023-05-11T17:10:01.817Z,24.00
2023-05-11T17:12:29.868Z,24.00
2023-05-11T17:14:58.297Z,24.00
2023-05-11T17:17:26.156Z,23.90
2023-05-11T17:19:54.220Z,24.00
2023-05-11T17:22:21.930Z,23.90
2023-05-11T17:24:51.716Z,24.00
2023-05-11T17:27:19.416Z,23.90
2023-05-11T17:29:47.160Z,23.90
2023-05-11T17:32:14.921Z,23.90
2023-05-11T17:34:43.349Z,23.80
2023-05-11T17:37:20.455Z,23.80
2023-05-11T17:39:57.298Z,23.80
2023-05-11T17:42:34.185Z,23.80
2023-05-11T17:45:06.337Z,23.80
2023-05-11T17:47:34.098Z,23.80
2023-05-11T17:50:02.480Z,23.80
2023-05-11T17:52:30.235Z,23.80
2023-05-11T17:54:59.678Z,23.80
2023-05-11T17:57:27.726Z,23.70
2023-05-11T17:59:55.819Z,23.70
2023-05-11T18:02:23.602Z,23.70
2023-05-11T18:04:51.429Z,23.70
2023-05-11T18:07:19.240Z,23.60
2023-05-11T18:09:46.906Z,23.60
2023-05-11T18:12:16.064Z,23.60
2023-05-11T18:14:43.782Z,23.60
2023-05-11T18:17:11.479Z,23.60
2023-05-11T18:19:39.558Z,23.50
2023-05-11T18:22:07.267Z,23.50
2023-05-11T18:24:34.952Z,23.50
2023-05-11T18:27:02.736Z,23.50
2023-05-11T18:29:31.770Z,23.50
2023-05-11T18:31:59.505Z,23.50
2023-05-11T18:34:27.471Z,23.40
2023-05-11T18:36:55.191Z,23.40
2023-05-11T18:39:22.854Z,23.40
2023-05-11T18:41:50.526Z,23.40
2023-05-11T18:44:19.179Z,23.40
2023-05-11T18:46:48.320Z,23.40
2023-05-11T18:49:16.038Z,23.40
2023-05-11T18:51:43.743Z,23.40
2023-05-11T18:54:11.583Z,23.40
2023-05-11T18:56:39.270Z,23.30
2023-05-11T18:59:07.668Z,23.30
2023-05-11T19:01:47.180Z,23.30
2023-05-11T19:04:19.526Z,23.30
2023-05-11T19:06:47.482Z,23.30
2023-05-11T19:09:15.157Z,23.30
2023-05-11T19:11:42.970Z,23.30
2023-05-11T19:14:14.245Z,23.20
2023-05-11T19:16:41.942Z,23.20
2023-05-11T19:19:09.766Z,23.20
2023-05-11T19:21:40.402Z,23.20
2023-05-11T19:24:08.643Z,23.20
2023-05-11T19:26:36.536Z,23.20
2023-05-11T19:29:04.833Z,23.20
2023-05-11T19:31:32.605Z,23.20
2023-05-11T19:34:01.795Z,23.20
2023-05-11T19:36:29.662Z,23.20
2023-05-11T19:38:58.649Z,23.10
2023-05-11T19:41:26.738Z,23.10
2023-05-11T19:43:54.815Z,23.10
2023-05-11T19:46:23.204Z,23.10
2023-05-11T19:48:50.916Z,23.10
2023-05-11T19:51:18.652Z,23.10
2023-05-11T19:53:46.482Z,23.10
2023-05-11T19:56:15.734Z,23.00
2023-05-11T19:58:43.490Z,23.00
2023-05-11T20:01:11.223Z,23.00
2023-05-11T20:03:39.219Z,23.00
2023-05-11T20:06:07.071Z,23.00
2023-05-11T20:08:34.846Z,23.10
2023-05-11T20:11:02.530Z,23.10
2023-05-11T20:13:31.914Z,23.10
2023-05-11T20:16:00.211Z,23.10
2023-05-11T20:18:28.049Z,23.10
2023-05-11T20:20:55.930Z,23.10
2023-05-11T20:23:23.594Z,23.10
2023-05-11T20:25:51.332Z,23.10
2023-05-11T20:28:20.841Z,23.10
2023-05-11T20:30:49.969Z,23.10
2023-05-11T20:35:48.237Z,23.10
2023-05-11T20:38:15.922Z,23.10
2023-05-11T20:40:43.582Z,23.20
2023-05-11T20:43:13.689Z,23.20
2023-05-11T20:45:42.257Z,23.20
2023-05-11T20:48:11.465Z,23.20
2023-05-11T20:50:39.779Z,23.20
2023-05-11T20:53:07.471Z,23.20
2023-05-11T20:55:35.124Z,23.20
2023-05-11T20:58:04.267Z,23.20
2023-05-11T21:00:31.964Z,23.20
2023-05-11T21:02:59.657Z,23.20
2023-05-11T21:05:28.780Z,23.20
2023-05-11T21:07:57.134Z,23.20
2023-05-11T21:10:24.842Z,23.20
2023-05-11T21:12:52.520Z,23.20
2023-05-11T21:15:20.246Z,23.20
2023-05-11T21:17:48.052Z,23.20
2023-05-11T21:20:16.247Z,23.20
2023-05-11T21:22:45.376Z,23.20
2023-05-11T21:25:13.270Z,23.30
2023-05-11T21:27:41.505Z,23.30
2023-05-11T21:30:10.097Z,23.30
2023-05-11T21:32:37.885Z,23.30
2023-05-11T21:35:06.151Z,23.30
2023-05-11T21:37:35.510Z,23.30
2023-05-11T21:40:05.084Z,23.30
2023-05-11T21:42:36.040Z,23.40
2023-05-11T21:45:03.939Z,23.40
2023-05-11T21:47:31.668Z,23.40
2023-05-11T21:49:59.380Z,23.40
2023-05-11T21:52:27.397Z,23.40
2023-05-11T21:54:55.041Z,23.40
2023-05-11T21:57:24.226Z,23.40
2023-05-11T21:59:51.915Z,23.40
2023-05-11T22:02:19.610Z,23.50
2023-05-11T22:04:47.392Z,23.50
2023-05-11T22:07:15.102Z,23.50
2023-05-11T22:09:42.775Z,23.50
2023-05-11T22:12:10.592Z,23.50
2023-05-11T22:14:39.588Z,23.60
2023-05-11T22:17:07.262Z,23.60
2023-05-11T22:19:34.944Z,23.60
2023-05-11T22:22:02.603Z,23.60
2023-05-11T22:24:30.525Z,23.60
2023-05-11T22:26:59.290Z,23.70
2023-05-11T22:29:26.974Z,23.70
2023-05-11T22:31:56.071Z,23.70
2023-05-11T22:34:24.342Z,23.70
2023-05-11T22:36:52.094Z,23.60
2023-05-11T22:39:19.754Z,23.70
2023-05-11T22:41:47.408Z,23.70
2023-05-11T22:44:15.073Z,23.70
2023-05-11T22:46:42.718Z,23.70
2023-05-11T22:49:12.194Z,23.80
2023-05-11T22:51:39.856Z,23.80
2023-05-11T22:54:07.819Z,23.80
2023-05-11T22:56:35.562Z,23.80
2023-05-11T22:59:04.547Z,23.90
2023-05-11T23:01:33.444Z,23.80
2023-05-11T23:04:01.173Z,23.90
2023-05-11T23:06:30.189Z,23.90
2023-05-11T23:08:57.836Z,23.90
2023-05-11T23:11:25.538Z,24.00
2023-05-11T23:13:53.313Z,24.00
2023-05-11T23:16:20.985Z,24.00
2023-05-11T23:18:48.836Z,24.00
2023-05-11T23:21:16.683Z,24.10
2023-05-11T23:23:45.667Z,24.10
2023-05-11T23:26:13.760Z,24.10
2023-05-11T23:28:41.478Z,24.10
2023-05-11T23:31:09.208Z,24.10
2023-05-11T23:33:36.928Z,24.20
2023-05-11T23:36:04.936Z,24.30
2023-05-11T23:38:32.622Z,24.20
2023-05-11T23:41:01.616Z,24.30
2023-05-11T23:43:29.879Z,24.30
2023-05-11T23:45:57.716Z,24.30
2023-05-11T23:48:25.458Z,24.30
2023-05-11T23:50:53.241Z,24.40
2023-05-11T23:53:20.932Z,24.40
2023-05-11T23:55:48.942Z,24.40
2023-05-11T23:58:17.949Z,24.50
